Time;durP1;ratioP1;P1;durP2;ratioP2;P2;SDS_P1;SDS_P2;PMS_P1;PMS_P2;Temp;Humidity;BMP_temperature;BMP_pressure;BME280_temperature;BME280_humidity;BME280_pressure;Samples;Min_cycle;Max_cycle;Signal;HPM_P1;HPM_P2
2024/02/01 00:01:59;;;;;;;11.25;6.07;;;6.60;99.90;;;10.16;84.70;101312.31;5031465;28;20397;-75
2024/02/01 00:04:25;;;;;;;10.48;5.85;;;6.70;99.90;;;10.09;86.37;101316.91;5032013;28;20045;-75
2024/02/01 00:06:51;;;;;;;8.75;6.03;;;6.70;99.90;;;10.17;85.98;101313.16;5007571;28;20034;-75
2024/02/01 00:09:18;;;;;;;9.25;6.13;;;6.70;99.90;;;10.12;86.09;101311.03;5030511;28;20037;-75
2024/02/01 00:11:44;;;;;;;9.68;6.43;;;6.70;99.90;;;9.96;88.98;101316.75;5032556;28;20052;-75
2024/02/01 00:14:10;;;;;;;11.10;5.72;;;6.70;99.90;;;9.91;89.91;101315.47;5031661;28;20049;-75
2024/02/01 00:16:35;;;;;;;11.23;6.28;;;6.70;99.90;;;10.00;91.62;101315.31;5024077;28;20059;-75
2024/02/01 00:19:01;;;;;;;9.60;5.65;;;6.70;99.90;;;10.11;90.30;101319.41;5032224;28;20159;-75
2024/02/01 00:21:27;;;;;;;10.57;6.40;;;6.60;99.90;;;9.87;90.99;101311.47;5032624;28;20491;-74
2024/02/01 00:23:53;;;;;;;12.95;6.70;;;6.60;99.90;;;10.04;91.60;101309.28;5014971;28;20038;-74
2024/02/01 00:26:20;;;;;;;13.77;6.88;;;6.60;99.90;;;10.00;91.57;101308.00;5032079;28;20033;-74
2024/02/01 00:28:46;;;;;;;11.40;6.63;;;6.60;99.90;;;9.89;92.64;101309.38;5031620;28;20033;-75
2024/02/01 00:31:12;;;;;;;11.68;6.57;;;6.70;99.90;;;10.22;91.73;101294.34;5025661;28;20172;-75
2024/02/01 00:33:38;;;;;;;10.23;6.55;;;6.70;99.90;;;10.09;92.68;101325.06;5013106;28;20040;-75
2024/02/01 00:36:04;;;;;;;11.18;6.30;;;6.80;99.90;;;10.17;93.12;101310.44;5029735;28;20080;-75
2024/02/01 00:38:29;;;;;;;12.90;7.55;;;6.80;99.90;;;9.79;99.78;101328.78;5031142;28;20033;-75
2024/02/01 00:40:55;;;;;;;11.77;7.15;;;6.80;99.90;;;9.71;100.00;101328.94;5046719;28;20405;-74
2024/02/01 00:43:21;;;;;;;12.75;7.60;;;6.70;99.90;;;9.75;100.00;101329.34;5023258;28;20036;-75
2024/02/01 00:45:47;;;;;;;13.20;8.05;;;6.50;99.90;;;9.90;100.00;101323.84;5031950;28;20037;-75
2024/02/01 00:48:12;;;;;;;13.18;8.43;;;6.30;99.90;;;9.75;100.00;101319.31;5023519;28;20033;-75
2024/02/01 00:50:38;;;;;;;14.38;9.43;;;6.20;99.90;;;9.54;100.00;101322.84;5032586;28;20037;-74
2024/02/01 00:53:04;;;;;;;20.27;10.30;;;6.10;99.90;;;9.19;100.00;101307.22;5031818;28;20033;-75
2024/02/01 00:55:29;;;;;;;18.35;11.27;;;6.10;99.90;;;9.24;100.00;101309.34;5013489;28;20103;-75
2024/02/01 00:57:55;;;;;;;19.05;11.52;;;6.00;99.90;;;9.16;100.00;101321.22;5031778;28;20651;-73
2024/02/01 01:00:21;;;;;;;18.25;13.07;;;6.00;99.90;;;9.06;100.00;101318.78;5014116;28;20048;-75
2024/02/01 01:02:46;;;;;;;18.98;12.23;;;5.90;99.90;;;9.22;100.00;101308.69;5029715;28;20559;-74
2024/02/01 01:05:12;;;;;;;19.45;13.05;;;5.90;99.90;;;9.05;100.00;101336.16;5025684;28;20040;-75
2024/02/01 01:07:38;;;;;;;23.05;14.23;;;5.80;99.90;;;8.99;100.00;101309.66;5028796;28;20512;-74
2024/02/01 01:10:04;;;;;;;23.15;13.88;;;5.80;99.90;;;9.12;100.00;101294.53;5030595;28;20371;-74
2024/02/01 01:12:30;;;;;;;29.02;14.00;;;5.80;99.90;;;9.05;100.00;101303.50;5027034;28;20041;-74
2024/02/01 01:14:56;;;;;;;23.10;14.07;;;5.80;99.90;;;9.27;100.00;101303.50;5031854;28;20116;-74
2024/02/01 01:17:22;;;;;;;22.38;14.10;;;5.80;99.90;;;9.23;100.00;101304.09;5031266;28;20108;-75
2024/02/01 01:19:50;;;;;;;21.77;14.55;;;5.80;99.90;;;9.27;100.00;101299.94;5031790;28;20041;-75
2024/02/01 01:22:15;;;;;;;22.73;15.05;;;5.80;99.90;;;9.09;100.00;101300.38;5030699;28;20033;-74
2024/02/01 01:24:41;;;;;;;24.13;15.30;;;5.80;99.90;;;9.12;100.00;101306.25;5028138;28;20048;-76
2024/02/01 01:27:07;;;;;;;23.75;15.13;;;5.80;99.90;;;9.10;100.00;101286.56;5012934;28;20036;-75
2024/02/01 01:29:32;;;;;;;25.63;14.73;;;5.80;99.90;;;9.14;100.00;101287.03;5027075;28;20095;-76
2024/02/01 01:31:58;;;;;;;22.88;14.70;;;5.70;99.90;;;9.15;100.00;101284.13;5031306;28;20583;-75
2024/02/01 01:34:24;;;;;;;25.38;15.48;;;5.70;99.90;;;9.07;100.00;101293.25;5031091;28;20049;-76
2024/02/01 01:36:49;;;;;;;24.67;14.40;;;5.70;99.90;;;8.97;100.00;101294.59;5030178;28;20041;-75
2024/02/01 01:39:15;;;;;;;24.35;15.35;;;5.70;99.90;;;9.24;100.00;101293.00;5031172;28;20037;-76
2024/02/01 01:41:44;;;;;;;21.02;14.27;;;5.80;99.90;;;9.23;100.00;101295.94;5030972;28;20036;-75
2024/02/01 01:44:11;;;;;;;23.85;15.38;;;5.80;99.90;;;9.26;100.00;101273.75;5030182;28;20042;-75
2024/02/01 01:46:37;;;;;;;24.20;16.20;;;5.80;99.90;;;9.30;100.00;101285.94;5029309;28;20124;-75
2024/02/01 01:49:05;;;;;;;23.52;15.43;;;5.80;99.90;;;9.15;100.00;101296.88;5009785;28;20061;-76
2024/02/01 01:51:34;;;;;;;26.73;15.70;;;5.80;99.90;;;9.51;100.00;101285.13;5030557;28;20187;-76
2024/02/01 01:54:01;;;;;;;23.75;16.13;;;5.80;99.90;;;9.36;100.00;101274.28;5030705;28;20060;-77
2024/02/01 01:56:28;;;;;;;23.88;14.23;;;5.80;99.90;;;9.40;100.00;101272.84;5030128;28;20140;-77
2024/02/01 01:58:54;;;;;;;23.42;15.15;;;5.80;99.90;;;9.21;100.00;101264.31;5030424;28;20095;-76
2024/02/01 02:01:20;;;;;;;23.83;15.10;;;5.80;99.90;;;9.31;100.00;101265.84;5030342;28;20029;-77
2024/02/01 02:03:47;;;;;;;20.92;15.20;;;5.80;99.90;;;9.53;100.00;101263.97;5030536;28;20680;-77
2024/02/01 02:06:13;;;;;;;28.90;15.50;;;5.90;99.90;;;9.46;100.00;101254.91;5029771;28;20038;-76
2024/02/01 02:08:39;;;;;;;25.73;14.68;;;5.90;99.90;;;9.25;100.00;101242.97;5030526;28;20041;-77
2024/02/01 02:11:05;;;;;;;23.13;14.90;;;5.90;99.90;;;9.24;100.00;101254.88;5030514;28;20438;-76
2024/02/01 02:13:31;;;;;;;25.75;16.00;;;5.90;99.90;;;9.16;100.00;101244.13;5011740;28;20053;-76
2024/02/01 02:15:56;;;;;;;22.73;14.82;;;5.90;99.90;;;9.45;100.00;101245.03;5030323;28;20041;-77
2024/02/01 02:18:22;;;;;;;20.77;14.00;;;5.90;99.90;;;9.60;100.00;101234.94;5029829;28;20037;-77
2024/02/01 02:20:50;;;;;;;26.17;15.98;;;5.90;99.90;;;9.30;100.00;101234.22;5025733;28;20045;-77
2024/02/01 02:23:17;;;;;;;21.38;15.00;;;5.90;99.90;;;9.55;100.00;101251.03;5029554;28;20041;-76
2024/02/01 02:25:43;;;;;;;26.20;16.23;;;5.90;99.90;;;9.57;100.00;101250.81;5030075;28;20029;-77
2024/02/01 02:28:09;;;;;;;22.38;15.45;;;5.90;99.90;;;9.45;100.00;101242.31;5029667;28;20469;-77
2024/02/01 02:30:38;;;;;;;23.58;15.38;;;5.90;99.90;;;9.62;100.00;101242.91;5029909;28;20033;-76
2024/02/01 02:33:04;;;;;;;22.33;14.95;;;5.90;99.90;;;9.62;100.00;101237.44;5029207;28;20112;-77
2024/02/01 02:35:30;;;;;;;22.38;14.70;;;5.90;99.90;;;9.48;100.00;101244.66;5029934;28;20045;-76
2024/02/01 02:37:55;;;;;;;24.13;14.75;;;6.00;99.90;;;9.73;100.00;101255.16;5045472;28;20110;-76
2024/02/01 02:40:22;;;;;;;22.52;14.60;;;6.00;99.90;;;9.84;100.00;101253.78;5045288;28;20072;-75
2024/02/01 02:42:48;;;;;;;22.42;14.80;;;6.10;99.90;;;9.87;100.00;101265.13;5011634;28;20396;-76
2024/02/01 02:45:15;;;;;;;22.60;14.15;;;6.10;99.90;;;9.72;100.00;101264.34;5007308;28;20095;-76
2024/02/01 02:47:41;;;;;;;20.23;14.10;;;6.10;99.90;;;9.75;100.00;101261.25;5027955;28;20496;-76
2024/02/01 02:50:08;;;;;;;21.67;14.48;;;6.10;99.90;;;9.79;100.00;101268.84;5029525;28;20141;-76
2024/02/01 02:52:39;;;;;;;21.63;14.48;;;6.20;99.90;;;9.54;100.00;101265.66;5029664;28;20052;-76
2024/02/01 02:55:07;;;;;;;22.88;14.25;;;6.20;99.90;;;9.87;100.00;101247.91;5028601;28;20041;-75
2024/02/01 02:57:34;;;;;;;23.05;15.10;;;6.20;99.90;;;9.64;100.00;101255.28;5029535;28;20038;-76
2024/02/01 03:00:02;;;;;;;22.20;14.35;;;6.20;99.90;;;9.77;100.00;101248.25;5028342;28;20196;-76
2024/02/01 03:02:28;;;;;;;20.25;13.80;;;6.30;99.90;;;9.46;100.00;101241.28;5028972;28;20080;-76
2024/02/01 03:04:53;;;;;;;21.00;14.13;;;6.30;99.90;;;9.79;100.00;101247.03;5029123;28;20034;-75
2024/02/01 03:07:19;;;;;;;21.25;14.00;;;6.30;99.90;;;9.89;100.00;101245.84;5010336;28;20080;-76
2024/02/01 03:09:45;;;;;;;21.50;14.32;;;6.30;99.90;;;9.92;100.00;101237.25;5029419;28;20482;-76
2024/02/01 03:12:10;;;;;;;19.13;13.15;;;6.30;99.90;;;9.96;100.00;101243.16;5024872;28;20038;-75
2024/02/01 03:14:40;;;;;;;20.55;14.32;;;6.30;99.90;;;9.93;100.00;101234.34;5027729;28;20504;-76
2024/02/01 03:17:08;;;;;;;24.10;14.40;;;6.30;99.90;;;9.84;100.00;101254.63;5029357;28;20137;-76
2024/02/01 03:19:39;;;;;;;20.42;13.82;;;6.40;99.90;;;10.01;100.00;101252.44;5029264;28;20052;-76
2024/02/01 03:22:05;;;;;;;22.45;14.18;;;6.40;99.90;;;10.11;100.00;101246.66;5029443;28;20088;-76
2024/02/01 03:24:32;;;;;;;21.75;14.18;;;6.40;99.90;;;10.11;100.00;101257.56;5029041;28;20168;-75
2024/02/01 03:27:01;;;;;;;23.98;13.85;;;6.50;99.90;;;10.17;100.00;101248.56;5029372;28;20056;-76
2024/02/01 03:29:28;;;;;;;21.23;14.35;;;6.50;99.90;;;10.28;100.00;101257.22;5029656;28;20033;-76
2024/02/01 03:31:55;;;;;;;19.63;13.38;;;6.50;99.90;;;10.17;100.00;101266.81;5031364;28;20396;-75
2024/02/01 03:34:20;;;;;;;19.70;13.38;;;6.50;99.90;;;10.04;100.00;101260.22;5032353;28;20045;-75
2024/02/01 03:36:52;;;;;;;18.95;13.35;;;6.60;99.90;;;10.33;100.00;101262.91;5033210;28;20127;-75
2024/02/01 03:39:24;;;;;;;19.77;14.07;;;6.60;99.90;;;10.24;100.00;101267.72;5027247;28;20042;-76
2024/02/01 03:41:51;;;;;;;19.85;13.48;;;6.60;99.90;;;10.43;100.00;101260.72;5032578;28;20033;-75
2024/02/01 03:44:18;;;;;;;18.25;13.35;;;6.60;99.90;;;10.31;100.00;101252.22;5008319;28;20090;-76
2024/02/01 03:46:44;;;;;;;20.58;13.70;;;6.60;99.90;;;10.25;100.00;101266.66;5032650;28;20556;-75
2024/02/01 03:49:10;;;;;;;23.45;14.07;;;6.70;99.90;;;10.24;100.00;101275.03;5032212;28;20037;-75
2024/02/01 03:51:37;;;;;;;19.55;13.02;;;6.70;99.90;;;10.38;100.00;101275.97;5032482;28;20091;-75
2024/02/01 03:54:08;;;;;;;19.80;13.13;;;6.70;99.90;;;10.18;100.00;101274.78;5032757;28;20477;-75
2024/02/01 03:56:35;;;;;;;18.35;12.98;;;6.70;99.90;;;10.27;100.00;101294.59;5031844;28;20052;-75
2024/02/01 03:59:08;;;;;;;21.83;14.18;;;6.70;99.90;;;10.50;100.00;101291.59;5032558;28;20108;-75
2024/02/01 04:01:35;;;;;;;18.42;12.70;;;6.70;99.90;;;10.25;100.00;101304.00;5031403;28;20116;-75
2024/02/01 04:04:05;;;;;;;19.95;13.15;;;6.80;99.90;;;10.43;100.00;101270.78;5032964;28;20091;-76
2024/02/01 04:06:37;;;;;;;19.83;13.30;;;6.80;99.90;;;10.46;100.00;101273.09;5032338;28;20056;-75
2024/02/01 04:09:06;;;;;;;20.23;12.85;;;6.80;99.90;;;10.42;100.00;101294.50;5029281;28;20042;-75
2024/02/01 04:11:31;;;;;;;20.73;13.75;;;6.80;99.90;;;10.47;100.00;101281.09;5033149;28;20488;-75
2024/02/01 04:13:57;;;;;;;20.25;13.18;;;6.90;99.90;;;10.66;100.00;101284.16;5027775;28;20045;-76
2024/02/01 04:16:23;;;;;;;20.25;12.80;;;6.90;99.90;;;10.77;100.00;101283.56;5031174;28;20639;-75
2024/02/01 04:18:50;;;;;;;19.05;13.45;;;6.90;99.90;;;10.85;100.00;101295.34;5032391;28;20140;-74
2024/02/01 04:21:15;;;;;;;18.90;13.32;;;6.90;99.90;;;10.73;100.00;101289.63;5030968;28;20029;-74
2024/02/01 04:23:41;;;;;;;20.42;13.35;;;6.90;99.90;;;10.65;100.00;101293.38;5031524;28;20033;-75
2024/02/01 04:26:07;;;;;;;20.05;13.70;;;6.90;99.90;;;10.63;100.00;101295.47;5031530;28;20037;-75
2024/02/01 04:28:33;;;;;;;19.40;12.55;;;6.90;99.90;;;10.40;100.00;101310.22;5032039;28;20045;-75
2024/02/01 04:31:01;;;;;;;18.58;12.50;;;7.00;99.90;;;10.63;100.00;101295.47;5032081;28;20044;-75
2024/02/01 04:33:28;;;;;;;16.98;12.10;;;7.00;99.90;;;10.69;100.00;101302.00;5032104;28;20056;-75
2024/02/01 04:35:54;;;;;;;16.33;12.70;;;7.10;99.90;;;10.01;100.00;101317.88;5030414;28;20044;-75
2024/02/01 04:38:20;;;;;;;16.00;11.45;;;7.10;99.90;;;10.71;100.00;101308.09;5031880;28;20469;-75
2024/02/01 04:40:46;;;;;;;15.73;10.98;;;7.20;99.90;;;10.80;100.00;101323.25;5031209;28;20041;-76
2024/02/01 04:43:12;;;;;;;15.25;11.30;;;7.20;99.90;;;11.07;100.00;101324.22;5032517;28;20381;-75
2024/02/01 04:45:38;;;;;;;14.75;10.40;;;7.20;99.90;;;11.16;100.00;101332.25;5031215;28;20128;-75
2024/02/01 04:48:10;;;;;;;15.45;10.80;;;7.20;99.90;;;10.89;100.00;101334.88;5032144;28;20038;-77
2024/02/01 04:50:37;;;;;;;16.00;11.35;;;7.20;99.90;;;11.13;100.00;101329.91;5032189;28;20033;-75
2024/02/01 04:53:04;;;;;;;14.23;9.23;;;7.20;99.90;;;10.77;100.00;101340.88;5014188;28;20049;-74
2024/02/01 04:55:29;;;;;;;14.85;9.88;;;7.30;99.90;;;10.99;100.00;101343.50;5047168;28;20037;-76
2024/02/01 04:57:55;;;;;;;12.75;8.77;;;7.30;99.90;;;10.67;100.00;101340.41;5026906;28;20040;-75
2024/02/01 05:00:21;;;;;;;13.65;9.43;;;7.30;99.90;;;10.70;100.00;101350.91;5032093;28;20448;-75
2024/02/01 05:02:47;;;;;;;12.35;8.70;;;7.30;99.90;;;11.02;100.00;101361.38;5031773;28;20136;-75
2024/02/01 05:05:16;;;;;;;12.23;8.63;;;7.30;99.90;;;10.99;100.00;101359.91;5031338;28;20037;-75
2024/02/01 05:07:42;;;;;;;12.00;9.27;;;7.30;99.90;;;10.88;100.00;101355.03;5031519;28;20432;-76
2024/02/01 05:10:09;;;;;;;13.32;9.40;;;7.20;99.90;;;10.88;100.00;101363.22;5013625;28;20033;-75
2024/02/01 05:12:41;;;;;;;13.70;8.77;;;7.30;99.90;;;10.83;100.00;101376.59;5031371;28;20037;-75
2024/02/01 05:15:09;;;;;;;12.48;8.80;;;7.20;99.90;;;10.48;100.00;101370.06;5029151;28;20052;-75
2024/02/01 05:17:39;;;;;;;13.05;8.85;;;7.30;99.90;;;10.51;100.00;101382.50;5031305;28;20176;-75
2024/02/01 05:20:11;;;;;;;13.52;9.80;;;7.20;99.90;;;10.12;100.00;101368.28;5031445;28;20052;-74
2024/02/01 05:22:41;;;;;;;16.52;10.00;;;7.30;99.90;;;10.83;100.00;101382.06;5030861;28;20057;-75
2024/02/01 05:25:18;;;;;;;18.52;10.70;;;7.20;99.90;;;10.65;100.00;101380.69;5031503;28;20071;-75
2024/02/01 05:27:52;;;;;;;16.85;11.50;;;7.20;99.90;;;10.34;100.00;101382.75;5031276;28;20037;-76
2024/02/01 05:30:20;;;;;;;17.20;10.95;;;7.20;99.90;;;10.55;100.00;101386.50;5030788;28;20021;-75
2024/02/01 05:32:53;;;;;;;17.90;10.88;;;7.20;99.90;;;10.60;100.00;101391.34;5011047;28;20033;-75
2024/02/01 05:35:28;;;;;;;16.77;11.68;;;7.20;99.90;;;10.47;100.00;101392.94;5009837;28;20041;-76
2024/02/01 05:37:56;;;;;;;16.40;11.30;;;7.20;99.90;;;10.85;100.00;101391.75;5028945;28;20062;-75
2024/02/01 05:40:22;;;;;;;16.15;11.15;;;7.20;99.90;;;10.73;100.00;101410.56;5029191;28;20033;-75
2024/02/01 05:42:49;;;;;;;18.10;11.90;;;7.20;99.90;;;10.77;100.00;101414.56;5023181;28;20041;-76
2024/02/01 05:45:19;;;;;;;17.90;12.07;;;7.20;99.90;;;10.69;100.00;101403.81;5027760;28;20493;-76
2024/02/01 05:47:45;;;;;;;17.13;11.55;;;7.20;99.90;;;10.76;100.00;101421.06;5034337;28;20036;-75
2024/02/01 05:50:15;;;;;;;19.00;12.55;;;7.20;99.90;;;10.32;100.00;101433.06;5022220;28;20064;-75
2024/02/01 05:52:41;;;;;;;17.08;11.77;;;7.20;99.90;;;10.31;100.00;101434.09;5036538;28;20036;-75
2024/02/01 05:55:10;;;;;;;16.63;11.27;;;7.20;99.90;;;10.19;100.00;101442.81;5041132;28;20048;-76
2024/02/01 05:57:37;;;;;;;15.65;11.13;;;7.10;99.90;;;9.89;100.00;101442.94;5023378;28;20397;-76
2024/02/01 06:00:06;;;;;;;15.15;10.38;;;7.10;99.90;;;9.85;100.00;101462.56;5042741;28;20063;-78
2024/02/01 06:02:33;;;;;;;17.52;9.88;;;7.10;99.90;;;10.12;100.00;101443.78;5040481;28;20132;-75
2024/02/01 06:05:00;;;;;;;17.15;10.98;;;7.10;99.90;;;9.66;100.00;101453.13;5012242;28;20481;-74
2024/02/01 06:07:26;;;;;;;15.05;9.15;;;7.00;99.90;;;9.94;100.00;101450.50;5030539;28;20045;-74
2024/02/01 06:09:51;;;;;;;15.23;9.10;;;6.90;99.90;;;9.89;100.00;101463.88;5029266;28;20044;-74
2024/02/01 06:12:17;;;;;;;14.57;8.75;;;6.80;99.90;;;9.64;100.00;101470.53;5012724;28;20520;-74
2024/02/01 06:14:43;;;;;;;17.30;8.35;;;6.80;99.90;;;9.07;100.00;101475.63;5030496;28;20091;-75
2024/02/01 06:17:09;;;;;;;15.13;8.18;;;6.80;99.90;;;9.11;100.00;101475.25;5025266;28;20037;-75
2024/02/01 06:19:36;;;;;;;12.80;8.80;;;6.70;99.90;;;9.31;100.00;101473.66;5028679;28;20127;-74
2024/02/01 06:22:06;;;;;;;16.58;8.45;;;6.60;99.90;;;9.05;100.00;101479.56;5027620;28;20247;-74
2024/02/01 06:24:34;;;;;;;13.50;8.05;;;6.60;99.90;;;9.16;100.00;101494.59;5029402;28;20065;-74
2024/02/01 06:27:01;;;;;;;15.52;8.07;;;6.60;99.90;;;9.84;100.00;101497.19;5030511;28;20064;-75
2024/02/01 06:29:27;;;;;;;16.25;7.25;;;6.50;99.90;;;8.91;100.00;101494.84;5018009;28;20038;-75
2024/02/01 06:31:53;;;;;;;15.73;8.00;;;6.50;99.90;;;9.30;100.00;101515.53;5032638;28;20029;-75
2024/02/01 06:34:26;;;;;;;23.20;8.45;;;6.40;99.90;;;9.39;100.00;101519.00;5033162;28;20033;-73
2024/02/01 06:36:58;;;;;;;17.08;8.00;;;6.30;99.90;;;9.41;100.00;101513.38;5040072;28;20116;-75
2024/02/01 06:42:23;;;;;;;19.85;8.30;;;6.20;99.90;;;9.02;100.00;101535.22;5029178;28;20040;-76
2024/02/01 06:44:57;;;;;;;17.08;8.13;;;6.20;99.90;;;9.42;100.00;101542.28;5034385;28;20033;-76
2024/02/01 06:47:36;;;;;;;15.98;8.05;;;6.20;99.90;;;9.03;100.00;101544.22;5041061;28;20599;-76
2024/02/01 06:50:15;;;;;;;19.98;8.35;;;6.20;99.90;;;9.07;100.00;101553.69;5031201;28;20116;-76
2024/02/01 06:52:43;;;;;;;20.23;8.38;;;6.20;99.90;;;9.31;100.00;101554.50;5029401;28;20073;-75
2024/02/01 07:03:13;;;;;;;18.42;8.25;;;6.10;99.90;;;9.30;100.00;101559.13;5030156;28;20037;-76
2024/02/01 07:16:21;;;;;;;18.25;8.60;;;6.00;99.90;;;8.70;100.00;101577.16;5031047;28;20045;-75
2024/02/01 07:19:09;;;;;;;16.98;8.43;;;6.10;99.90;;;9.39;100.00;101587.06;5033541;28;20144;-74
2024/02/01 07:22:00;;;;;;;19.67;7.28;;;6.10;99.90;;;9.50;100.00;101596.69;5026999;28;20071;-74
2024/02/01 07:58:08;;;;;;;18.88;4.40;;;5.90;99.90;;;8.70;100.00;101666.94;5030870;28;20033;-75
2024/02/01 08:00:28;;;;;;;22.95;4.10;;;6.00;99.90;;;8.87;100.00;101673.13;5000918;28;20232;-75
2024/02/01 08:03:03;;;;;;;16.70;3.58;;;6.10;99.90;;;9.17;100.00;101674.09;5032926;28;20060;-75
2024/02/01 08:08:17;;;;;;;18.13;3.60;;;6.20;99.90;;;8.70;100.00;101684.09;5027931;28;20165;-76
2024/02/01 08:10:45;;;;;;;16.30;3.85;;;6.20;99.90;;;8.63;100.00;101673.09;5031621;28;20158;-76
2024/02/01 08:13:12;;;;;;;20.42;3.83;;;6.20;99.90;;;9.24;100.00;101678.81;5031803;28;20041;-75
2024/02/01 08:15:42;;;;;;;18.50;3.95;;;6.10;99.90;;;9.07;100.00;101696.13;5031938;28;20044;-75
2024/02/01 08:18:11;;;;;;;18.45;4.13;;;6.10;99.90;;;9.25;100.00;101708.56;5030442;28;20041;-75
2024/02/01 08:20:40;;;;;;;23.80;4.50;;;6.10;99.90;;;9.72;100.00;101701.19;5032823;28;20099;-74
2024/02/01 08:23:13;;;;;;;19.90;3.72;;;6.20;99.90;;;9.33;100.00;101696.75;5033495;28;20064;-76
2024/02/01 08:25:42;;;;;;;18.45;3.50;;;6.20;99.90;;;9.64;100.00;101712.16;5032007;28;20037;-76
2024/02/01 08:28:09;;;;;;;15.55;3.55;;;6.30;99.90;;;9.07;100.00;101717.91;5048139;28;20042;-75
2024/02/01 08:30:35;;;;;;;16.17;3.28;;;6.20;99.90;;;9.72;100.00;101703.06;5032466;28;20043;-76
2024/02/01 08:33:04;;;;;;;16.38;3.55;;;6.20;99.90;;;9.65;100.00;101702.94;5022059;28;20029;-75
2024/02/01 08:35:34;;;;;;;18.27;4.13;;;6.20;99.90;;;9.64;100.00;101706.69;5032471;28;20539;-76
2024/02/01 08:38:04;;;;;;;16.33;3.88;;;6.20;99.90;;;9.05;100.00;101702.75;5032496;28;20029;-77
2024/02/01 08:40:30;;;;;;;18.33;3.65;;;6.20;99.90;;;9.63;100.00;101700.41;5032034;28;20069;-77
2024/02/01 08:42:58;;;;;;;21.58;4.45;;;6.20;99.90;;;9.85;100.00;101703.28;5032730;28;20072;-74
2024/02/01 08:45:29;;;;;;;24.08;4.10;;;6.30;99.90;;;10.17;100.00;101712.13;5027898;28;20045;-76
2024/02/01 08:48:00;;;;;;;25.30;4.82;;;6.30;99.90;;;9.86;100.00;101717.75;5032376;28;20044;-76
2024/02/01 08:50:31;;;;;;;22.73;4.88;;;6.40;99.90;;;10.30;100.00;101716.91;5031337;28;20038;-74
2024/02/01 08:52:57;;;;;;;18.40;3.42;;;6.40;99.90;;;10.35;100.00;101719.09;5031358;28;20041;-76
2024/02/01 08:55:23;;;;;;;24.15;4.38;;;6.50;99.90;;;10.11;100.00;101721.06;5013669;28;20410;-76
2024/02/01 08:57:49;;;;;;;20.20;3.50;;;6.60;99.90;;;10.40;100.00;101724.84;5031780;28;20048;-75
2024/02/01 09:00:25;;;;;;;23.95;4.07;;;6.60;99.90;;;9.81;100.00;101740.09;5001931;28;20037;-77
2024/02/01 09:03:03;;;;;;;20.90;3.10;;;6.60;99.90;;;9.61;100.00;101737.03;5030031;28;20045;-77
2024/02/01 09:05:43;;;;;;;28.43;3.40;;;6.60;99.90;;;9.35;100.00;101733.69;5031758;28;20041;-76
2024/02/01 09:08:19;;;;;;;27.73;3.70;;;6.70;99.90;;;9.78;100.00;101730.41;5032200;28;20029;-77
2024/02/01 09:10:57;;;;;;;19.13;3.40;;;6.80;99.90;;;9.85;100.00;101740.56;5031936;28;20072;-76
2024/02/01 09:13:25;;;;;;;23.73;3.95;;;6.80;99.90;;;10.86;100.00;101751.03;4998995;28;20030;-76
2024/02/01 09:15:51;;;;;;;31.38;3.85;;;7.10;99.90;;;9.35;100.00;101750.03;5032542;28;20053;-77
2024/02/01 09:18:18;;;;;;;23.63;3.53;;;7.00;99.90;;;9.50;100.00;101755.53;5030620;28;20453;-77
2024/02/01 09:20:45;;;;;;;27.38;3.83;;;6.90;99.90;;;9.70;100.00;101760.47;5031767;28;20033;-75
2024/02/01 09:23:14;;;;;;;23.58;3.63;;;6.90;99.90;;;9.85;100.00;101771.41;5032076;28;20048;-78
2024/02/01 09:25:41;;;;;;;22.48;3.63;;;7.00;99.90;;;10.46;100.00;101769.59;5027392;28;20485;-76
2024/02/01 09:28:15;;;;;;;23.40;4.03;;;7.10;99.90;;;10.08;100.00;101779.53;5030156;28;20033;-76
2024/02/01 09:30:47;;;;;;;19.38;4.10;;;7.10;99.90;;;10.77;100.00;101790.41;5027603;28;20042;-77
2024/02/01 09:33:22;;;;;;;14.02;3.45;;;7.20;99.90;;;10.52;100.00;101781.66;5031455;28;20021;-77
2024/02/01 09:35:48;;;;;;;20.55;3.28;;;7.40;99.90;;;10.66;100.00;101797.19;5020373;28;20057;-76
2024/02/01 09:38:14;;;;;;;20.52;3.47;;;7.30;99.90;;;10.20;100.00;101792.69;5029443;28;20048;-78
2024/02/01 09:40:43;;;;;;;19.10;3.75;;;7.30;99.90;;;10.37;100.00;101796.13;5030533;28;20041;-77
2024/02/01 09:43:20;;;;;;;24.83;3.60;;;7.20;99.90;;;10.24;100.00;101793.19;5031023;28;20040;-77
2024/02/01 09:45:50;;;;;;;22.42;3.53;;;7.20;99.90;;;9.70;100.00;101804.09;5028129;28;20037;-78
2024/02/01 09:48:17;;;;;;;27.60;3.85;;;7.10;99.90;;;9.58;100.00;101811.84;5026997;28;20122;-77
2024/02/01 09:50:53;;;;;;;23.50;3.53;;;7.10;99.90;;;10.02;100.00;101812.13;5029838;28;20044;-77
2024/02/01 09:53:25;;;;;;;24.08;3.83;;;7.30;99.90;;;11.08;100.00;101806.53;5028856;28;20037;-78
2024/02/01 09:55:58;;;;;;;17.45;3.70;;;;;;;10.64;100.00;101815.63;5028425;28;20051;-77
2024/02/01 09:58:26;;;;;;;23.15;3.75;;;7.50;99.90;;;11.00;100.00;101823.03;5029042;28;20112;-78
2024/02/01 10:00:56;;;;;;;24.23;3.55;;;8.60;99.90;;;11.66;100.00;101830.25;5028106;28;20374;-77
2024/02/01 10:03:27;;;;;;;23.23;3.80;;;8.60;99.90;;;10.45;100.00;101819.75;5030286;28;20033;-78
2024/02/01 10:06:04;;;;;;;25.63;3.80;;;8.30;99.90;;;10.82;100.00;101825.31;5031051;28;20033;-77
2024/02/01 10:08:33;;;;;;;24.77;4.20;;;;;;;11.92;99.35;101838.91;5030724;28;20477;-77
2024/02/01 10:11:03;;;;;;;26.77;3.63;;;8.60;99.90;;;10.76;100.00;101841.41;4998107;28;20371;-76
2024/02/01 10:13:33;;;;;;;23.63;3.85;;;8.70;99.90;;;11.98;96.17;101838.13;5027995;28;20111;-75
2024/02/01 10:16:00;;;;;;;22.77;3.38;;;;;;;12.26;87.71;101811.88;5030511;28;20477;-76
2024/02/01 10:18:26;;;;;;;20.85;3.67;;;;;;;11.58;89.98;101827.66;5030777;28;20033;-75
2024/02/01 10:20:54;;;;;;;19.02;3.05;;;;;;;12.21;88.23;101837.94;5030797;28;20401;-75
2024/02/01 10:23:20;;;;;;;18.52;3.47;;;;;;;11.27;89.36;101833.41;5030685;28;20033;-77
2024/02/01 10:25:48;;;;;;;20.98;3.42;;;;;;;11.54;94.10;101859.16;5032672;28;20029;-75
2024/02/01 10:28:23;;;;;;;22.77;3.88;;;;;;;10.73;97.96;101866.34;5030013;28;20048;-76
2024/02/01 10:30:50;;;;;;;22.42;3.47;;;9.00;99.90;;;10.87;100.00;101850.13;5012838;28;20037;-76
2024/02/01 10:33:26;;;;;;;22.38;3.53;;;8.10;99.90;;;12.58;87.30;101832.25;5031028;28;20033;-75
2024/02/01 10:35:53;;;;;;;16.25;3.05;;;;;;;13.43;77.05;101817.50;5012785;28;20417;-75
2024/02/01 10:38:24;;;;;;;22.23;3.90;;;;;;;12.41;79.89;101817.22;5045749;28;20044;-76
2024/02/01 10:40:58;;;;;;;19.13;3.45;;;;;;;12.20;81.27;101817.09;5030290;28;20049;-76
2024/02/01 10:43:34;;;;;;;24.33;4.07;;;;;;;12.74;80.60;101822.91;5003791;28;20033;-76
2024/02/01 10:46:06;;;;;;;24.02;3.90;;;8.90;99.90;;;11.15;82.92;101830.34;5029585;28;20137;-76
2024/02/01 10:48:59;;;;;;;16.92;3.33;;;8.70;99.90;;;10.90;90.44;101855.25;5025835;28;20056;-75
2024/02/01 10:51:25;;;;;;;29.55;5.78;;;8.00;99.90;;;11.44;89.94;101864.09;5026389;28;20382;-75
2024/02/01 10:53:51;;;;;;;20.52;3.78;;;8.20;99.90;;;11.55;90.03;101846.34;5030400;28;20044;-75
2024/02/01 10:56:18;;;;;;;24.85;3.20;;;;;;;12.97;80.68;101826.38;5029301;28;20129;-76
2024/02/01 10:58:53;;;;;;;23.02;3.45;;;;;;;13.31;76.98;101824.59;5024417;28;20477;-76
2024/02/01 11:01:24;;;;;;;22.58;3.65;;;;;;;13.35;73.37;101814.91;5024108;28;20037;-75
2024/02/01 11:03:58;;;;;;;16.02;3.75;;;;;;;12.41;77.19;101820.78;5030077;28;20141;-75
2024/02/01 11:06:25;;;;;;;25.92;3.83;;;;;;;13.11;74.18;101797.97;5029331;28;20443;-76
2024/02/01 11:08:53;;;;;;;22.83;3.38;;;;;;;15.17;62.06;101770.78;5030352;28;20446;-75
2024/02/01 11:11:27;;;;;;;;;;;;;;;13.57;69.12;101785.47;5029425;28;20037;-75
2024/02/01 11:14:07;;;;;;;20.85;3.38;;;;;;;14.03;70.22;101800.25;5030341;28;19917;-75
2024/02/01 11:16:49;;;;;;;24.88;3.90;;;;;;;14.87;65.61;101790.59;5026942;28;20030;-75